Item Display Status Inductive CT Sensor

Mooring Depth: 60 m

 

Deployed Sensor

  • Serial Number: 4211
  • NDBC Property Number: 24587
  • Start Date: 11/5/2018 (13:33:04 Z)
  • End Date: 7/15/2020 (12:00:00 Z)
Water Temperature [°C]     6 entries per hour
Showing data from 6/29/2020 (08:50:00 Z) to 6/28/2020 (00:00:01 Z)
Previous Next [ Day | 3-Days | 7-Days ]
First Last
Prev [ Day | 3-Days | 7-Days ] Next
First Last

Start Time:     :
End Time:     :     
Time (in GMT) :00 :50 :40 :30 :20 :10
Previous Next [ Day | 3-Days | 7-Days ]
First Last
Prev [ Day | 3-Days | 7-Days ] Next
First Last


123 => good data
MM => data is determined as missing
-- => data not received/configured
Back to Top Back to Top
6/29/2020 09:00 to 8:10 -- 15.393 15.882 15.743 15.956 15.994
6/29/2020 08:00 to 7:10 15.967 15.981 15.952 15.849 15.909 15.917
6/29/2020 07:00 to 6:10 16.002 16.014 15.979 15.990 15.947 15.960
6/29/2020 06:00 to 5:10 15.972 16.005 16.016 15.953 15.949 15.856
6/29/2020 05:00 to 4:10 15.897 15.870 15.805 15.814 15.385 15.596
6/29/2020 04:00 to 3:10 15.847 15.826 15.913 15.895 15.867 15.881
6/29/2020 03:00 to 2:10 15.918 15.949 15.853 15.890 15.955 16.003
6/29/2020 02:00 to 1:10 16.036 16.026 16.103 16.086 16.071 16.033
6/29/2020 01:00 to 0:10 16.074 16.049 16.097 16.067 16.061 16.124
6/29/2020 00:00 to 23:10 16.000 16.034 15.988 15.950 15.978 16.038
6/28/2020 23:00 to 22:10 16.032 16.006 16.007 15.919 15.599 15.744
6/28/2020 22:00 to 21:10 15.742 15.876 15.975 15.931 16.002 15.971
6/28/2020 21:00 to 20:10 16.015 16.066 16.150 16.196 16.220 16.251
6/28/2020 20:00 to 19:10 16.211 16.210 16.225 16.217 16.220 16.310
6/28/2020 19:00 to 18:10 16.213 16.171 16.163 16.148 16.172 16.226
6/28/2020 18:00 to 17:10 16.230 16.172 16.217 16.186 16.165 16.197
6/28/2020 17:00 to 16:10 16.218 16.210 16.123 16.106 16.084 16.112
6/28/2020 16:00 to 15:10 16.147 16.163 16.139 16.154 16.120 16.111
6/28/2020 15:00 to 14:10 15.982 15.954 16.025 16.090 16.090 16.184
6/28/2020 14:00 to 13:10 16.224 16.093 16.148 16.157 16.039 16.085
6/28/2020 13:00 to 12:10 16.207 16.118 16.032 16.135 16.071 15.952
6/28/2020 12:00 to 11:10 15.804 15.790 15.886 15.997 15.956 15.994
6/28/2020 11:00 to 10:10 16.092 16.143 16.120 16.059 15.972 15.939
6/28/2020 10:00 to 9:10 15.986 16.034 16.079 16.112 16.020 16.060
6/28/2020 09:00 to 8:10 15.939 16.197 16.238 16.291 16.393 16.437
6/28/2020 08:00 to 7:10 16.457 16.540 16.300 16.474 16.569 16.587
6/28/2020 07:00 to 6:10 16.630 16.610 16.621 16.618 16.671 16.706
6/28/2020 06:00 to 5:10 16.673 16.607 16.668 16.703 16.654 16.853
6/28/2020 05:00 to 4:10 16.682 16.635 16.880 16.612 16.679 16.546
6/28/2020 04:00 to 3:10 16.584 16.632 16.654 16.710 16.695 16.608
6/28/2020 03:00 to 2:10 16.505 16.580 16.569 16.627 16.619 16.648
6/28/2020 02:00 to 1:10 16.682 16.727 16.818 16.794 16.763 16.798
6/28/2020 01:00 to 0:10 16.613 16.627 16.334 16.394 15.877 15.706

 

 

 

Conductivity [S/m]     6 entries per hour
Showing data from 6/29/2020 (08:50:00 Z) to 6/28/2020 (00:00:01 Z)
Previous Next [ Day | 3-Days | 7-Days ]
First Last
Prev [ Day | 3-Days | 7-Days ] Next
First Last

Start Time:     :
End Time:     :     
Time (in GMT) :00 :50 :40 :30 :20 :10
Previous Next [ Day | 3-Days | 7-Days ]
First Last
Prev [ Day | 3-Days | 7-Days ] Next
First Last


123 => good data
MM => data is determined as missing
-- => data not received/configured
Back to Top Back to Top
6/29/2020 09:00 to 8:10 -- 4.31897 4.36897 4.35505 4.37542 4.37874
6/29/2020 08:00 to 7:10 4.37571 4.37792 4.37512 4.36349 4.36932 4.37245
6/29/2020 07:00 to 6:10 4.37995 4.38139 4.37706 4.37874 4.37441 4.37620
6/29/2020 06:00 to 5:10 4.37719 4.38055 4.38238 4.37512 4.37490 4.36593
6/29/2020 05:00 to 4:10 4.36928 4.36721 4.35925 4.35850 4.31732 4.34358
6/29/2020 04:00 to 3:10 4.36430 4.36226 4.36903 4.36610 4.36674 4.36771
6/29/2020 03:00 to 2:10 4.37212 4.37370 4.36549 4.37106 4.37600 4.38013
6/29/2020 02:00 to 1:10 4.38488 4.38397 4.39181 4.38882 4.38842 4.38426
6/29/2020 01:00 to 0:10 4.38864 4.38612 4.39057 4.38802 4.38714 4.39394
6/29/2020 00:00 to 23:10 4.38225 4.38484 4.38059 4.37540 4.37783 4.38484
6/28/2020 23:00 to 22:10 4.38360 4.38123 4.38170 4.37159 4.34246 4.35236
6/28/2020 22:00 to 21:10 4.35486 4.36672 4.37739 4.37326 4.38000 4.37721
6/28/2020 21:00 to 20:10 4.38712 4.38842 4.39667 4.40131 4.40458 4.40843
6/28/2020 20:00 to 19:10 4.40467 4.40469 4.40580 4.40438 4.40516 4.41081
6/28/2020 19:00 to 18:10 4.40378 4.39953 4.39711 4.39718 4.40011 4.40585
6/28/2020 18:00 to 17:10 4.40583 4.40016 4.40422 4.40147 4.39940 4.40260
6/28/2020 17:00 to 16:10 4.40465 4.40284 4.39414 4.39177 4.38920 4.39350
6/28/2020 16:00 to 15:10 4.39605 4.39811 4.39567 4.39747 4.39443 4.39245
6/28/2020 15:00 to 14:10 4.38157 4.37697 4.38351 4.38776 4.39017 4.40044
6/28/2020 14:00 to 13:10 4.40442 4.39170 4.39678 4.39558 4.38490 4.39221
6/28/2020 13:00 to 12:10 4.40244 4.39316 4.38320 4.39558 4.38747 4.37461
6/28/2020 12:00 to 11:10 4.36041 4.35925 4.36879 4.37969 4.37755 4.37931
6/28/2020 11:00 to 10:10 4.38904 4.39545 4.39307 4.38641 4.37980 4.37613
6/28/2020 10:00 to 9:10 4.37887 4.38415 4.38816 4.39443 4.38349 4.38725
6/28/2020 09:00 to 8:10 4.37465 4.40182 4.40560 4.41280 4.42291 4.42591
6/28/2020 08:00 to 7:10 4.42856 4.43557 4.41306 4.43170 4.44074 4.44360
6/28/2020 07:00 to 6:10 4.44776 4.44549 4.44540 4.44738 4.45292 4.45648
6/28/2020 06:00 to 5:10 4.45211 4.44529 4.45229 4.45529 4.45062 4.46839
6/28/2020 05:00 to 4:10 4.45301 4.44772 4.46959 4.44497 4.45200 4.43902
6/28/2020 04:00 to 3:10 4.44191 4.44702 4.44932 4.45535 4.45366 4.44511
6/28/2020 03:00 to 2:10 4.43440 4.44196 4.44114 4.44651 4.44491 4.44832
6/28/2020 02:00 to 1:10 4.45229 4.45671 4.46674 4.46446 4.46095 4.46489
6/28/2020 01:00 to 0:10 4.44529 4.44611 4.41650 4.42157 4.36862 4.35464

 

 

 

Salinity [psu]     6 entries per hour
Showing data from 6/29/2020 (08:50:00 Z) to 6/28/2020 (00:00:01 Z)
Previous Next [ Day | 3-Days | 7-Days ]
First Last
Prev [ Day | 3-Days | 7-Days ] Next
First Last

Start Time:     :
End Time:     :     
Time (in GMT) :00 :50 :40 :30 :20 :10
Previous Next [ Day | 3-Days | 7-Days ]
First Last
Prev [ Day | 3-Days | 7-Days ] Next
First Last


123 => good data
MM => data is determined as missing
-- => data not received/configured
Back to Top Back to Top
6/29/2020 09:00 to 8:10 -- 34.87 34.89 34.89 34.88 34.88
6/29/2020 08:00 to 7:10 34.87 34.88 34.88 34.87 34.87 34.89
6/29/2020 07:00 to 6:10 34.88 34.88 34.88 34.88 34.88 34.88
6/29/2020 06:00 to 5:10 34.88 34.88 34.89 34.88 34.88 34.88
6/29/2020 05:00 to 4:10 34.88 34.88 34.87 34.85 34.86 34.91
6/29/2020 04:00 to 3:10 34.88 34.88 34.86 34.85 34.88 34.88
6/29/2020 03:00 to 2:10 34.89 34.87 34.88 34.90 34.89 34.88
6/29/2020 02:00 to 1:10 34.89 34.90 34.90 34.89 34.90 34.89
6/29/2020 01:00 to 0:10 34.90 34.89 34.89 34.90 34.89 34.90
6/29/2020 00:00 to 23:10 34.90 34.90 34.90 34.89 34.88 34.89
6/28/2020 23:00 to 22:10 34.89 34.89 34.89 34.88 34.90 34.86
6/28/2020 22:00 to 21:10 34.89 34.87 34.88 34.88 34.88 34.88
6/28/2020 21:00 to 20:10 34.93 34.90 34.90 34.90 34.91 34.92
6/28/2020 20:00 to 19:10 34.92 34.92 34.91 34.91 34.91 34.88
6/28/2020 19:00 to 18:10 34.91 34.91 34.89 34.91 34.91 34.91
6/28/2020 18:00 to 17:10 34.91 34.91 34.91 34.91 34.91 34.91
6/28/2020 17:00 to 16:10 34.91 34.90 34.90 34.89 34.89 34.91
6/28/2020 16:00 to 15:10 34.90 34.90 34.90 34.90 34.91 34.90
6/28/2020 15:00 to 14:10 34.91 34.90 34.89 34.87 34.89 34.90
6/28/2020 14:00 to 13:10 34.90 34.91 34.90 34.88 34.89 34.92
6/28/2020 13:00 to 12:10 34.90 34.90 34.88 34.90 34.89 34.88
6/28/2020 12:00 to 11:10 34.88 34.88 34.88 34.88 34.90 34.88
6/28/2020 11:00 to 10:10 34.88 34.89 34.89 34.89 34.91 34.90
6/28/2020 10:00 to 9:10 34.89 34.89 34.89 34.91 34.90 34.89
6/28/2020 09:00 to 8:10 34.89 34.90 34.90 34.92 34.92 34.91
6/28/2020 08:00 to 7:10 34.91 34.90 34.91 34.93 34.92 34.93
6/28/2020 07:00 to 6:10 34.93 34.93 34.92 34.94 34.94 34.94
6/28/2020 06:00 to 5:10 34.93 34.93 34.94 34.93 34.93 34.92
6/28/2020 05:00 to 4:10 34.93 34.93 34.90 34.92 34.93 34.93
6/28/2020 04:00 to 3:10 34.92 34.92 34.92 34.93 34.93 34.93
6/28/2020 03:00 to 2:10 34.92 34.92 34.93 34.92 34.92 34.92
6/28/2020 02:00 to 1:10 34.93 34.93 34.93 34.93 34.93 34.93
6/28/2020 01:00 to 0:10 34.92 34.92 34.91 34.91 34.89 34.92